createdAt,value
2019-04-11T00:00:06.879Z,88.85
2019-04-11T00:01:05.979Z,88.12
2019-04-11T00:02:06.638Z,88.33
2019-04-11T00:03:05.601Z,88.12
2019-04-11T00:04:06.085Z,88.64
2019-04-11T00:05:06.421Z,88.23
2019-04-11T00:06:05.597Z,88.33
2019-04-11T00:07:05.887Z,87.71
2019-04-11T00:08:05.970Z,87.29
2019-04-11T00:09:06.085Z,88.23
2019-04-11T00:10:06.250Z,87.60
2019-04-11T00:11:05.934Z,88.12
2019-04-11T00:12:06.335Z,87.60
2019-04-11T00:13:17.277Z,87.50
2019-04-11T00:14:07.428Z,87.92
2019-04-11T00:15:06.391Z,87.71
2019-04-11T00:16:06.778Z,87.71
2019-04-11T00:17:05.802Z,87.60
2019-04-11T00:18:06.138Z,88.33
2019-04-11T00:19:05.458Z,88.02
2019-04-11T00:20:05.417Z,87.85
2019-04-11T00:21:06.651Z,87.75
2019-04-11T00:22:05.663Z,88.27
2019-04-11T00:23:06.091Z,88.37
2019-04-11T00:24:05.404Z,88.12
2019-04-11T00:25:05.388Z,88.37
2019-04-11T00:26:06.489Z,88.27
2019-04-11T00:27:05.634Z,87.85
2019-04-11T00:28:05.724Z,88.06
2019-04-11T00:29:05.947Z,88.48
2019-04-11T00:30:05.966Z,88.17
2019-04-11T00:31:06.352Z,89.31
2019-04-11T00:32:08.778Z,87.96
2019-04-11T00:33:05.713Z,88.68
2019-04-11T00:34:05.276Z,88.27
2019-04-11T00:35:05.256Z,88.31
2019-04-11T00:36:06.286Z,87.85
2019-04-11T00:37:05.263Z,87.96
2019-04-11T00:38:05.542Z,88.10
2019-04-11T00:39:05.578Z,88.20
2019-04-11T00:40:05.205Z,88.20
2019-04-11T00:41:05.835Z,88.31
2019-04-11T00:42:06.173Z,88.42
2019-04-11T00:43:05.278Z,88.27
2019-04-11T00:44:06.267Z,87.58
2019-04-11T00:45:05.441Z,87.79
2019-04-11T00:46:05.138Z,87.68
2019-04-11T00:47:05.131Z,87.89
2019-04-11T00:48:05.822Z,87.89
2019-04-11T00:49:06.210Z,87.79
2019-04-11T00:50:05.644Z,88.20
2019-04-11T00:51:05.086Z,88.31
2019-04-11T00:52:05.081Z,88.52
2019-04-11T00:53:05.590Z,88.42
2019-04-11T00:54:05.086Z,89.35
2019-04-11T00:55:05.114Z,88.83
2019-04-11T00:56:06.130Z,88.20
2019-04-11T00:57:05.024Z,87.58
2019-04-11T00:58:05.556Z,87.52
2019-04-11T00:59:05.860Z,88.42
2019-04-11T01:00:05.048Z,88.31
2019-04-11T01:01:04.989Z,88.24
2019-04-11T01:02:05.172Z,88.35
2019-04-11T01:03:06.200Z,88.98
2019-04-11T01:04:04.960Z,88.24
2019-04-11T01:05:05.470Z,89.29
2019-04-11T01:06:05.785Z,89.39
2019-04-11T01:07:04.924Z,88.31
2019-04-11T01:08:05.233Z,89.25
2019-04-11T01:09:04.906Z,89.18
2019-04-11T01:10:04.882Z,89.39
2019-04-11T01:11:05.786Z,89.12
2019-04-11T01:12:04.915Z,89.08
2019-04-11T01:13:05.106Z,89.12
2019-04-11T01:14:05.681Z,89.01
2019-04-11T01:15:05.001Z,89.70
2019-04-11T01:16:05.077Z,89.64
2019-04-11T01:17:06.140Z,89.75
2019-04-11T01:18:05.590Z,89.22
2019-04-11T01:19:04.786Z,89.12
2019-04-11T01:20:04.953Z,89.12
2019-04-11T01:21:04.771Z,88.91
2019-04-11T01:22:05.749Z,88.95
2019-04-11T01:23:04.856Z,88.81
2019-04-11T01:24:04.773Z,88.70
2019-04-11T01:25:04.726Z,89.12
2019-04-11T01:26:05.308Z,89.32
2019-04-11T01:27:05.601Z,89.32
2019-04-11T01:28:04.719Z,89.54
2019-04-11T01:29:04.682Z,89.85
2019-04-11T01:30:04.730Z,90.06
2019-04-11T01:31:05.239Z,90.00
2019-04-11T01:32:04.647Z,90.06
2019-04-11T01:33:04.654Z,89.47
2019-04-11T01:34:04.626Z,90.16
2019-04-11T01:35:04.821Z,90.62
2019-04-11T01:36:04.883Z,91.04
2019-04-11T01:37:04.597Z,91.14
2019-04-11T01:38:04.595Z,91.04
2019-04-11T01:39:05.183Z,90.93
2019-04-11T01:40:05.525Z,91.04
2019-04-11T01:41:04.582Z,91.04
2019-04-11T01:42:04.868Z,90.45
2019-04-11T01:43:04.540Z,91.04
2019-04-11T01:44:07.120Z,91.08
2019-04-11T01:45:05.375Z,91.04
2019-04-11T01:46:05.592Z,90.83
2019-04-11T01:47:04.658Z,90.83
2019-04-11T01:48:04.530Z,90.77
2019-04-11T01:49:04.467Z,90.97
2019-04-11T01:50:04.961Z,90.35
2019-04-11T01:51:05.356Z,91.08
2019-04-11T01:52:05.019Z,91.25
2019-04-11T01:53:04.641Z,91.08
2019-04-11T01:54:05.637Z,90.87
2019-04-11T01:55:04.404Z,90.87
2019-04-11T01:56:05.100Z,90.87
2019-04-11T01:57:05.428Z,90.87
2019-04-11T01:58:04.661Z,90.77
2019-04-11T01:59:04.908Z,90.87
2019-04-11T02:00:04.407Z,91.43
2019-04-11T02:01:04.340Z,91.39
2019-04-11T02:02:05.389Z,91.33
2019-04-11T02:03:04.319Z,91.18
2019-04-11T02:04:04.306Z,91.29
2019-04-11T02:05:04.883Z,91.22
2019-04-11T02:06:05.412Z,91.29
2019-04-11T02:07:04.606Z,91.12
2019-04-11T02:08:04.266Z,91.08
2019-04-11T02:09:04.256Z,90.91
2019-04-11T02:10:04.361Z,92.06
2019-04-11T02:11:05.381Z,91.12
2019-04-11T02:12:04.276Z,91.12
2019-04-11T02:13:04.220Z,91.02
2019-04-11T02:14:10.941Z,91.22
2019-04-11T02:15:06.115Z,91.22
2019-04-11T02:16:05.016Z,91.64
2019-04-11T02:17:04.331Z,91.75
2019-04-11T02:18:05.364Z,91.22
2019-04-11T02:19:04.146Z,91.22
2019-04-11T02:20:04.852Z,91.22
2019-04-11T02:21:05.192Z,91.22
2019-04-11T02:22:04.219Z,91.43
2019-04-11T02:23:04.642Z,91.12
2019-04-11T02:24:04.157Z,91.22
2019-04-11T02:25:04.089Z,91.22
2019-04-11T02:26:05.017Z,91.64
2019-04-11T02:27:04.065Z,91.64
2019-04-11T02:28:04.429Z,92.00
2019-04-11T02:29:04.055Z,91.89
2019-04-11T02:30:04.646Z,91.54
2019-04-11T02:31:05.410Z,91.27
2019-04-11T02:32:05.442Z,91.37
2019-04-11T02:33:04.700Z,91.89
2019-04-11T02:34:05.876Z,91.58
2019-04-11T02:35:05.142Z,91.89
2019-04-11T02:36:05.264Z,91.69
2019-04-11T02:37:05.037Z,91.89
2019-04-11T02:38:04.953Z,91.89
2019-04-11T02:39:09.809Z,91.69
2019-04-11T02:40:07.136Z,91.69
2019-04-11T02:41:05.956Z,91.58
2019-04-11T02:42:04.158Z,91.79
2019-04-11T02:43:04.921Z,91.06
2019-04-11T02:44:05.746Z,91.00
2019-04-11T02:45:22.680Z,91.27
2019-04-11T02:46:14.304Z,91.47
2019-04-11T02:47:09.438Z,91.79
2019-04-11T02:48:05.865Z,91.58
2019-04-11T02:49:03.826Z,91.79
2019-04-11T02:50:05.637Z,91.37
2019-04-11T02:51:06.910Z,91.27
2019-04-11T02:52:03.794Z,91.27
2019-04-11T02:53:05.062Z,91.27
2019-04-11T02:54:04.727Z,91.37
2019-04-11T02:55:05.633Z,91.16
2019-04-11T02:56:03.754Z,91.37
2019-04-11T02:57:03.755Z,91.47
2019-04-11T02:58:05.614Z,91.16
2019-04-11T02:59:05.200Z,91.16
2019-04-11T03:00:04.451Z,91.27
2019-04-11T03:01:06.978Z,90.95
2019-04-11T03:02:04.661Z,90.95
2019-04-11T03:03:05.710Z,91.06
2019-04-11T03:04:04.931Z,90.89
2019-04-11T03:05:05.523Z,91.27
2019-04-11T03:06:04.443Z,91.20
2019-04-11T03:07:03.979Z,90.68
2019-04-11T03:08:07.990Z,91.00
2019-04-11T03:09:04.682Z,91.00
2019-04-11T03:10:04.931Z,91.00
2019-04-11T03:11:05.327Z,91.10
2019-04-11T03:12:05.182Z,91.52
2019-04-11T03:13:04.848Z,91.31
2019-04-11T03:14:04.128Z,91.41
2019-04-11T03:15:21.129Z,91.72
2019-04-11T03:16:19.251Z,91.46
2019-04-11T03:17:14.098Z,91.10
2019-04-11T03:18:08.658Z,91.25
2019-04-11T03:19:18.351Z,91.31
2019-04-11T03:20:18.784Z,91.41
2019-04-11T03:21:09.043Z,91.94
2019-04-11T03:22:05.567Z,91.77
2019-04-11T03:23:07.488Z,91.72
2019-04-11T03:24:06.348Z,91.66
2019-04-11T03:25:05.370Z,91.72
2019-04-11T03:26:05.177Z,91.83
2019-04-11T03:27:04.934Z,91.72
2019-04-11T03:28:04.957Z,91.94
2019-04-11T03:29:04.165Z,91.66
2019-04-11T03:30:06.748Z,91.77
2019-04-11T03:31:33.067Z,91.46
2019-04-11T03:32:49.343Z,91.46
2019-04-11T03:37:00.085Z,91.77
2019-04-11T03:37:30.248Z,91.87
2019-04-11T03:38:33.187Z,91.98
2019-04-11T03:39:21.744Z,91.87
2019-04-11T03:40:22.608Z,91.77
2019-04-11T03:41:22.012Z,91.77
2019-04-11T03:42:21.941Z,92.40
2019-04-11T03:43:20.139Z,91.87
2019-04-11T03:44:14.390Z,91.77
2019-04-11T03:45:31.100Z,91.77
2019-04-11T03:46:25.044Z,91.66
2019-04-11T03:47:16.664Z,91.98
2019-04-11T03:48:18.145Z,91.87
2019-04-11T03:49:19.544Z,91.77
2019-04-11T03:50:10.732Z,91.87
2019-04-11T03:51:04.803Z,92.40
2019-04-11T03:52:03.686Z,92.23
2019-04-11T03:53:04.769Z,92.40
2019-04-11T03:54:03.165Z,92.54
2019-04-11T03:55:05.923Z,92.29
2019-04-11T03:56:03.863Z,92.44
2019-04-11T03:57:03.626Z,92.44
2019-04-11T03:58:03.781Z,92.50
2019-04-11T03:59:04.089Z,91.98
2019-04-11T04:00:04.246Z,92.29
2019-04-11T04:01:05.864Z,93.17
2019-04-11T04:02:05.801Z,93.70
2019-04-11T04:03:04.571Z,93.17
2019-04-11T04:04:03.444Z,92.44
2019-04-11T04:05:03.929Z,92.33
2019-04-11T04:06:04.447Z,92.44
2019-04-11T04:07:04.769Z,92.44
2019-04-11T04:08:04.550Z,92.85
2019-04-11T04:09:03.210Z,92.85
2019-04-11T04:10:05.025Z,92.44
2019-04-11T04:11:04.022Z,92.79
2019-04-11T04:12:02.969Z,92.96
2019-04-11T04:13:04.836Z,93.17
2019-04-11T04:14:04.219Z,93.17
2019-04-11T04:15:05.931Z,92.96
2019-04-11T04:16:12.140Z,92.96
2019-04-11T04:17:06.245Z,92.44
2019-04-11T04:18:03.558Z,92.44
2019-04-11T04:19:04.763Z,92.65
2019-04-11T04:20:04.862Z,92.65
2019-04-11T04:21:04.245Z,92.69
2019-04-11T04:22:03.157Z,92.13
2019-04-11T04:23:03.305Z,92.38
2019-04-11T04:24:04.047Z,92.69
2019-04-11T04:25:04.279Z,92.65
2019-04-11T04:26:03.145Z,93.32
2019-04-11T04:27:04.625Z,93.52
2019-04-11T04:28:03.157Z,93.38
2019-04-11T04:29:04.477Z,93.21
2019-04-11T04:30:05.327Z,93.27
2019-04-11T04:31:04.443Z,93.21
2019-04-11T04:32:03.091Z,93.21
2019-04-11T04:33:02.933Z,93.32
2019-04-11T04:34:03.859Z,93.11
2019-04-11T04:35:06.356Z,93.42
2019-04-11T04:36:04.867Z,93.21
2019-04-11T04:37:05.623Z,93.11
2019-04-11T04:38:03.052Z,93.21
2019-04-11T04:39:04.204Z,93.42
2019-04-11T04:40:20.331Z,93.63
2019-04-11T04:41:16.307Z,93.42
2019-04-11T04:42:08.153Z,93.52
2019-04-11T04:43:07.103Z,93.52
2019-04-11T04:44:04.307Z,93.52
2019-04-11T04:45:03.280Z,93.11
2019-04-11T04:46:17.071Z,93.21
2019-04-11T04:47:13.631Z,93.84
2019-04-11T04:48:08.471Z,93.11
2019-04-11T04:49:04.766Z,93.32
2019-04-11T04:50:04.562Z,93.32
2019-04-11T04:51:07.464Z,93.42
2019-04-11T04:52:04.129Z,93.32
2019-04-11T04:53:02.783Z,93.11
2019-04-11T04:54:03.957Z,93.32
2019-04-11T04:55:04.501Z,93.42
2019-04-11T04:56:02.743Z,93.11
2019-04-11T04:57:02.995Z,93.21
2019-04-11T04:58:02.467Z,93.42
2019-04-11T04:59:02.845Z,93.63
2019-04-11T05:00:04.838Z,93.52
2019-04-11T05:01:04.207Z,93.01
2019-04-11T05:02:04.041Z,93.21
2019-04-11T05:03:02.647Z,93.21
2019-04-11T05:04:02.405Z,93.63
2019-04-11T05:05:04.285Z,92.79
2019-04-11T05:06:03.956Z,92.79
2019-04-11T05:07:03.262Z,92.38
2019-04-11T05:08:02.892Z,92.38
2019-04-11T05:09:02.351Z,92.48
2019-04-11T05:10:03.226Z,92.27
2019-04-11T05:11:02.835Z,92.38
2019-04-11T05:12:03.445Z,92.16
2019-04-11T05:13:03.579Z,92.96
2019-04-11T05:14:03.009Z,92.96
2019-04-11T05:15:03.670Z,92.38
2019-04-11T05:16:09.574Z,92.75
2019-04-11T05:17:03.261Z,92.38
2019-04-11T05:18:02.250Z,92.16
2019-04-11T05:19:02.312Z,92.75
2019-04-11T05:20:03.007Z,92.54
2019-04-11T05:21:03.249Z,92.44
2019-04-11T05:22:02.214Z,92.33
2019-04-11T05:23:02.193Z,92.75
2019-04-11T05:24:02.202Z,91.91
2019-04-11T05:25:03.504Z,91.91
2019-04-11T05:26:03.400Z,92.33
2019-04-11T05:27:02.153Z,92.23
2019-04-11T05:28:02.276Z,91.81
2019-04-11T05:29:02.718Z,91.77
2019-04-11T05:30:02.947Z,91.77
2019-04-11T05:31:02.569Z,92.23
2019-04-11T05:32:03.090Z,91.77
2019-04-11T05:33:02.089Z,91.87
2019-04-11T05:34:02.082Z,91.87
2019-04-11T05:35:02.913Z,91.87
2019-04-11T05:36:02.064Z,91.56
2019-04-11T05:37:02.341Z,91.87
2019-04-11T05:38:02.045Z,91.87
2019-04-11T05:39:02.363Z,91.72
2019-04-11T05:40:03.096Z,91.83
2019-04-11T05:41:02.211Z,91.41
2019-04-11T05:42:03.055Z,91.52
2019-04-11T05:43:02.037Z,91.41
2019-04-11T05:44:04.291Z,91.10
2019-04-11T05:45:03.169Z,91.41
2019-04-11T05:46:03.637Z,91.27
2019-04-11T05:47:05.607Z,91.69
2019-04-11T05:48:03.098Z,91.06
2019-04-11T05:49:02.630Z,91.06
2019-04-11T05:50:07.579Z,91.27
2019-04-11T05:51:02.899Z,91.37
2019-04-11T05:52:02.125Z,91.69
2019-04-11T05:53:03.666Z,91.37
2019-04-11T05:54:06.138Z,91.16
2019-04-11T05:55:03.071Z,91.47
2019-04-11T05:56:01.844Z,91.47
2019-04-11T05:57:03.083Z,91.12
2019-04-11T05:58:05.906Z,91.02
2019-04-11T05:59:02.807Z,91.43
2019-04-11T06:00:01.794Z,91.43
2019-04-11T06:01:01.867Z,91.02
2019-04-11T06:02:06.470Z,91.22
2019-04-11T06:03:03.794Z,91.12
2019-04-11T06:04:02.056Z,90.81
2019-04-11T06:05:02.867Z,90.91
2019-04-11T06:06:02.959Z,91.50
2019-04-11T06:07:01.807Z,91.22
2019-04-11T06:08:02.515Z,91.39
2019-04-11T06:09:02.231Z,91.18
2019-04-11T06:10:06.019Z,91.39
2019-04-11T06:11:04.319Z,90.97
2019-04-11T06:12:01.673Z,90.93
2019-04-11T06:13:02.523Z,91.04
2019-04-11T06:14:03.887Z,90.93
2019-04-11T06:15:02.086Z,90.93
2019-04-11T06:16:02.952Z,90.72
2019-04-11T06:17:01.850Z,90.72
2019-04-11T06:18:02.687Z,90.89
2019-04-11T06:19:01.626Z,90.79
2019-04-11T06:20:02.117Z,90.26
2019-04-11T06:21:01.942Z,90.12
2019-04-11T06:22:01.564Z,89.95
2019-04-11T06:23:03.310Z,89.85
2019-04-11T06:24:01.538Z,89.60
2019-04-11T06:25:03.249Z,89.50
2019-04-11T06:26:02.268Z,89.66
2019-04-11T06:27:01.507Z,88.87
2019-04-11T06:28:02.090Z,89.08
2019-04-11T06:29:04.888Z,88.45
2019-04-11T06:30:03.392Z,87.89
2019-04-11T06:31:01.474Z,87.58
2019-04-11T06:32:01.471Z,87.33
2019-04-11T06:33:02.540Z,87.02
2019-04-11T06:34:01.435Z,86.40
2019-04-11T06:35:01.896Z,85.98
2019-04-11T06:36:02.149Z,86.40
2019-04-11T06:37:01.444Z,86.29
2019-04-11T06:38:02.534Z,86.25
2019-04-11T06:39:01.381Z,85.88
2019-04-11T06:40:02.512Z,85.63
2019-04-11T06:41:01.983Z,85.69
2019-04-11T06:42:01.405Z,85.52
2019-04-11T06:43:01.481Z,84.17
2019-04-11T06:44:02.579Z,84.27
2019-04-11T06:45:02.141Z,84.38
2019-04-11T06:46:01.305Z,85.06
2019-04-11T06:47:02.637Z,85.17
2019-04-11T06:48:01.335Z,85.38
2019-04-11T06:49:02.419Z,85.28
2019-04-11T06:50:01.270Z,84.61
2019-04-11T06:51:01.833Z,84.20
2019-04-11T06:52:02.202Z,84.20
2019-04-11T06:53:02.310Z,84.30
2019-04-11T06:54:01.261Z,84.58
2019-04-11T06:55:02.461Z,84.09
2019-04-11T06:56:01.752Z,84.37
2019-04-11T06:57:01.268Z,83.84
2019-04-11T06:58:01.174Z,83.64
2019-04-11T06:59:01.712Z,82.39
2019-04-11T07:00:01.186Z,83.39
2019-04-11T07:01:01.351Z,82.77
2019-04-11T07:02:09.742Z,82.15
2019-04-11T07:03:03.402Z,81.21
2019-04-11T07:04:01.111Z,82.46
2019-04-11T07:05:02.402Z,82.53
2019-04-11T07:06:01.133Z,82.01
2019-04-11T07:07:02.030Z,81.38
2019-04-11T07:08:02.106Z,79.41
2019-04-11T07:09:01.087Z,79.30
2019-04-11T07:10:02.073Z,78.47
2019-04-11T07:11:01.049Z,78.89
2019-04-11T07:12:01.365Z,79.03
2019-04-11T07:13:01.012Z,78.06
2019-04-11T07:14:01.893Z,77.85
2019-04-11T07:15:02.450Z,77.02
2019-04-11T07:16:00.985Z,75.78
2019-04-11T07:17:05.692Z,75.46
2019-04-11T07:18:04.700Z,76.68
2019-04-11T07:19:02.866Z,77.82
2019-04-11T07:20:00.939Z,76.37
2019-04-11T07:21:00.929Z,75.50
2019-04-11T07:22:00.920Z,75.09
2019-04-11T07:23:01.583Z,75.12
2019-04-11T07:24:00.957Z,75.71
2019-04-11T07:25:01.948Z,74.98
2019-04-11T07:26:00.871Z,74.88
2019-04-11T07:27:00.981Z,74.77
2019-04-11T07:28:01.499Z,75.57
2019-04-11T07:29:00.841Z,76.09
2019-04-11T07:30:00.889Z,76.29
2019-04-11T07:31:00.820Z,76.09
2019-04-11T07:32:00.972Z,74.32
2019-04-11T07:33:02.153Z,73.08
2019-04-11T07:34:00.880Z,72.25
2019-04-11T07:35:02.172Z,71.94
2019-04-11T07:36:01.706Z,71.73
2019-04-11T07:37:00.756Z,73.49
2019-04-11T07:38:01.098Z,75.43
2019-04-11T07:39:01.047Z,74.91
2019-04-11T07:40:00.859Z,74.57
2019-04-11T07:41:00.781Z,75.29
2019-04-11T07:42:01.095Z,74.43
2019-04-11T07:43:05.842Z,75.26
2019-04-11T07:44:01.677Z,75.26
2019-04-11T07:45:00.805Z,75.84
2019-04-11T07:46:00.656Z,76.15
2019-04-11T07:47:12.886Z,75.40
2019-04-11T07:48:02.742Z,72.71
2019-04-11T07:49:01.609Z,71.67
2019-04-11T07:50:00.610Z,71.67
2019-04-11T07:51:01.904Z,71.33
2019-04-11T07:52:00.594Z,71.74
2019-04-11T07:53:01.980Z,71.53
2019-04-11T07:54:00.629Z,69.78
2019-04-11T07:55:00.585Z,69.88
2019-04-11T07:56:02.493Z,69.74
2019-04-11T07:57:01.616Z,69.64
2019-04-11T07:58:00.529Z,68.99
2019-04-11T07:59:00.842Z,68.88
2019-04-11T08:00:00.562Z,67.65
2019-04-11T08:01:01.465Z,68.06
2019-04-11T08:02:01.551Z,67.85
2019-04-11T08:03:00.471Z,67.34
2019-04-11T08:04:01.567Z,68.27
2019-04-11T08:05:00.453Z,68.65
2019-04-11T08:06:00.924Z,68.48
2019-04-11T08:07:00.434Z,67.93
2019-04-11T08:08:00.649Z,69.17
2019-04-11T08:09:00.455Z,67.69
2019-04-11T08:10:00.394Z,66.45
2019-04-11T08:11:00.382Z,68.38
2019-04-11T08:12:00.830Z,68.27
2019-04-11T08:13:00.365Z,66.63
2019-04-11T08:14:00.351Z,65.18
2019-04-11T08:15:01.480Z,66.73
2019-04-11T08:16:00.328Z,67.66
2019-04-11T08:17:01.556Z,68.07
2019-04-11T08:18:00.367Z,66.18
2019-04-11T08:19:01.390Z,64.64
2019-04-11T08:20:00.289Z,64.77
2019-04-11T08:21:00.273Z,66.11
2019-04-11T08:22:00.882Z,65.56
2019-04-11T08:23:00.254Z,64.74
2019-04-11T08:24:00.354Z,65.67
2019-04-11T08:25:00.857Z,64.81
2019-04-11T08:26:00.223Z,65.53
2019-04-11T08:27:00.926Z,63.78
2019-04-11T08:28:03.039Z,63.68
2019-04-11T08:29:08.434Z,64.68
2019-04-11T08:30:02.532Z,64.68
2019-04-11T08:31:01.287Z,64.99
2019-04-11T08:32:00.455Z,63.72
2019-04-11T08:33:00.393Z,62.82
2019-04-11T08:34:00.134Z,62.72
2019-04-11T08:35:00.137Z,62.38
2019-04-11T08:36:00.142Z,63.52
2019-04-11T08:37:00.100Z,64.14
2019-04-11T08:38:01.088Z,63.82
2019-04-11T08:39:00.645Z,64.03
2019-04-11T08:40:00.072Z,64.21
2019-04-11T08:41:01.023Z,62.97
2019-04-11T08:42:01.048Z,60.30
2019-04-11T08:43:00.037Z,60.50
2019-04-11T08:44:00.027Z,63.79
2019-04-11T08:45:00.490Z,62.15
2019-04-11T08:46:00.002Z,64.07
2019-04-11T08:47:01.019Z,63.64
2019-04-11T08:48:00.290Z,62.19
2019-04-11T08:48:59.998Z,59.11
2019-04-11T08:49:59.958Z,57.16
2019-04-11T08:51:00.948Z,57.67
2019-04-11T08:52:00.051Z,57.98
2019-04-11T08:53:00.382Z,58.18
2019-04-11T08:53:59.948Z,58.62
2019-04-11T08:54:59.910Z,60.03
2019-04-11T08:56:01.906Z,64.56
2019-04-11T08:57:01.211Z,63.50
2019-04-11T08:58:00.324Z,61.04
2019-04-11T08:59:00.639Z,60.31
2019-04-11T09:00:00.003Z,61.86
2019-04-11T09:01:00.682Z,61.65
2019-04-11T09:02:00.412Z,60.11
2019-04-11T09:02:59.821Z,61.04
2019-04-11T09:04:06.766Z,60.83
2019-04-11T09:05:08.484Z,61.37
2019-04-11T09:06:02.698Z,61.37
2019-04-11T09:07:01.019Z,61.00
2019-04-11T09:08:00.175Z,59.98
2019-04-11T09:08:59.777Z,58.13
2019-04-11T09:09:59.863Z,58.34
2019-04-11T09:11:00.198Z,58.64
2019-04-11T09:12:00.409Z,58.51
2019-04-11T09:13:00.615Z,59.03
2019-04-11T09:13:59.850Z,59.13
2019-04-11T09:15:00.266Z,57.98
2019-04-11T09:15:59.673Z,56.51
2019-04-11T09:16:59.711Z,56.30
2019-04-11T09:18:04.716Z,57.33
2019-04-11T09:19:02.193Z,56.69
2019-04-11T09:19:59.632Z,50.44
2019-04-11T09:21:00.121Z,49.62
2019-04-11T09:22:00.447Z,48.69
2019-04-11T09:22:59.654Z,48.16
2019-04-11T09:23:59.835Z,47.03
2019-04-11T09:24:59.575Z,47.73
2019-04-11T09:25:59.599Z,47.22
2019-04-11T09:27:00.367Z,49.37
2019-04-11T09:28:00.691Z,47.83
2019-04-11T09:28:59.866Z,47.19
2019-04-11T09:29:59.528Z,46.30
2019-04-11T09:30:59.507Z,48.75
2019-04-11T09:32:00.119Z,47.22
2019-04-11T09:33:00.320Z,48.96
2019-04-11T09:33:59.590Z,47.34
2019-04-11T09:34:59.816Z,47.52
2019-04-11T09:35:59.709Z,47.83
2019-04-11T09:36:59.441Z,46.39
2019-04-11T09:38:00.157Z,46.81
2019-04-11T09:38:59.425Z,45.70
2019-04-11T09:39:59.456Z,45.80
2019-04-11T09:41:00.470Z,46.62
2019-04-11T09:41:59.391Z,46.83
2019-04-11T09:42:59.680Z,46.93
2019-04-11T09:44:00.161Z,47.24
2019-04-11T09:44:59.459Z,48.96
2019-04-11T09:45:59.811Z,48.26
2019-04-11T09:46:59.391Z,46.70
2019-04-11T09:48:09.403Z,47.83
2019-04-11T09:49:00.310Z,46.81
2019-04-11T09:50:00.065Z,46.60
2019-04-11T09:50:59.290Z,46.78
2019-04-11T09:52:00.336Z,46.99
2019-04-11T09:52:59.296Z,46.37
2019-04-11T09:53:59.289Z,46.17
2019-04-11T09:54:59.253Z,47.27
2019-04-11T09:55:59.240Z,47.27
2019-04-11T09:57:00.227Z,45.74
2019-04-11T09:58:00.144Z,47.50
2019-04-11T09:59:00.237Z,45.97
2019-04-11T09:59:59.217Z,45.35
2019-04-11T10:00:59.418Z,46.37
2019-04-11T10:02:00.304Z,49.04
2019-04-11T10:02:59.160Z,45.33
2019-04-11T10:03:59.454Z,44.23
2019-04-11T10:05:01.223Z,45.15
2019-04-11T10:05:59.146Z,44.96
2019-04-11T10:06:59.212Z,43.91
2019-04-11T10:07:59.997Z,44.24
2019-04-11T10:08:59.757Z,45.06
2019-04-11T10:10:00.196Z,45.98
2019-04-11T10:10:59.659Z,44.84
2019-04-11T10:11:59.169Z,44.43
2019-04-11T10:12:59.051Z,43.43
2019-04-11T10:13:59.605Z,43.73
2019-04-11T10:14:59.038Z,44.04
2019-04-11T10:15:59.786Z,43.94
2019-04-11T10:17:00.168Z,45.15
2019-04-11T10:17:59.104Z,45.97
2019-04-11T10:18:59.813Z,46.17
2019-04-11T10:20:00.243Z,45.35
2019-04-11T10:20:59.229Z,47.78
2019-04-11T10:21:58.956Z,46.35
2019-04-11T10:22:58.979Z,47.60
2019-04-11T10:23:59.011Z,47.71
2019-04-11T10:24:58.968Z,47.48
2019-04-11T10:25:59.352Z,47.07
2019-04-11T10:26:58.906Z,46.56
2019-04-11T10:27:58.896Z,44.92
2019-04-11T10:29:00.168Z,46.12
2019-04-11T10:29:59.036Z,47.56
2019-04-11T10:30:58.931Z,48.48
2019-04-11T10:31:59.071Z,44.70
2019-04-11T10:32:59.408Z,45.82
2019-04-11T10:33:59.561Z,43.77
2019-04-11T10:34:59.695Z,45.31
2019-04-11T10:35:58.947Z,43.06
2019-04-11T10:36:59.166Z,45.82
2019-04-11T10:37:58.781Z,43.67
2019-04-11T10:38:58.770Z,44.71
2019-04-11T10:40:00.023Z,43.08
2019-04-11T10:40:58.800Z,43.69
2019-04-11T10:41:58.897Z,44.08
2019-04-11T10:42:58.729Z,43.26
2019-04-11T10:43:59.439Z,42.43
2019-04-11T10:44:58.706Z,44.37
2019-04-11T10:45:58.853Z,44.78
2019-04-11T10:46:59.780Z,44.04
2019-04-11T10:47:58.701Z,43.63
2019-04-11T10:48:58.665Z,43.61
2019-04-11T10:49:58.811Z,42.79
2019-04-11T10:50:58.644Z,43.61
2019-04-11T10:51:58.630Z,44.84
2019-04-11T10:52:58.662Z,44.81
2019-04-11T10:53:59.660Z,42.97
2019-04-11T10:54:58.596Z,42.16
2019-04-11T10:55:58.620Z,44.12
2019-04-11T10:56:58.574Z,45.14
2019-04-11T10:57:58.563Z,44.45
2019-04-11T10:58:59.548Z,44.85
2019-04-11T10:59:58.702Z,43.94
2019-04-11T11:00:59.597Z,46.47
2019-04-11T11:01:58.520Z,45.86
2019-04-11T11:02:58.511Z,43.51
2019-04-11T11:03:59.032Z,43.43
2019-04-11T11:04:59.040Z,44.35
2019-04-11T11:05:59.584Z,44.96
2019-04-11T11:06:58.468Z,42.49
2019-04-11T11:07:59.289Z,40.75
2019-04-11T11:08:58.569Z,43.20
2019-04-11T11:09:58.766Z,44.02
2019-04-11T11:10:59.676Z,42.18
2019-04-11T11:11:58.852Z,43.18
2019-04-11T11:12:59.391Z,40.73
2019-04-11T11:13:58.467Z,44.20
2019-04-11T11:14:58.779Z,43.77
2019-04-11T11:15:58.364Z,43.35
2019-04-11T11:16:58.888Z,42.73
2019-04-11T11:18:31.978Z,41.20
2019-04-11T11:19:24.531Z,42.12
2019-04-11T11:20:10.703Z,40.49
2019-04-11T11:21:02.634Z,40.92
2019-04-11T11:22:00.423Z,43.47
2019-04-11T11:22:58.329Z,44.28
2019-04-11T11:23:58.586Z,46.22
2019-04-11T11:24:58.276Z,45.89
2019-04-11T11:25:58.542Z,45.43
2019-04-11T11:27:00.587Z,43.20
2019-04-11T11:27:58.233Z,43.10
2019-04-11T11:29:02.793Z,41.89
2019-04-11T11:30:01.632Z,46.37
2019-04-11T11:30:58.455Z,44.92
2019-04-11T11:31:58.191Z,45.31
2019-04-11T11:32:58.227Z,42.14
2019-04-11T11:33:58.860Z,40.83
2019-04-11T11:34:59.046Z,42.97
2019-04-11T11:36:01.090Z,42.26
2019-04-11T11:36:58.606Z,42.04
2019-04-11T11:37:58.118Z,42.85
2019-04-11T11:38:58.404Z,41.12
2019-04-11T11:40:02.719Z,42.73
2019-04-11T11:41:00.356Z,41.83
2019-04-11T11:41:58.095Z,42.65
2019-04-11T11:42:58.777Z,43.85
2019-04-11T11:43:59.201Z,45.28
2019-04-11T11:44:59.254Z,44.78
2019-04-11T11:45:58.913Z,45.57
2019-04-11T11:47:00.792Z,45.75
2019-04-11T11:47:58.859Z,41.16
2019-04-11T11:49:00.453Z,41.69
2019-04-11T11:50:01.579Z,43.32
2019-04-11T11:50:59.153Z,41.89
2019-04-11T11:52:00.034Z,40.47
2019-04-11T11:52:58.002Z,41.57
2019-04-11T11:53:57.963Z,40.47
2019-04-11T11:54:57.932Z,40.98
2019-04-11T11:55:57.989Z,40.96
2019-04-11T11:56:58.204Z,42.29
2019-04-11T11:57:57.898Z,43.20
2019-04-11T11:58:59.536Z,40.76
2019-04-11T11:59:58.728Z,40.05
2019-04-11T12:01:01.226Z,41.78
2019-04-11T12:02:00.036Z,41.67
2019-04-11T12:02:58.959Z,42.10
2019-04-11T12:04:01.294Z,41.66
2019-04-11T12:04:57.853Z,41.75
2019-04-11T12:05:59.060Z,41.23
2019-04-11T12:07:02.087Z,39.70
2019-04-11T12:08:00.241Z,38.99
2019-04-11T12:08:58.238Z,39.58
2019-04-11T12:09:58.557Z,37.54
2019-04-11T12:10:57.789Z,35.90
2019-04-11T12:11:58.786Z,36.08
2019-04-11T12:12:57.733Z,37.12
2019-04-11T12:13:57.918Z,37.92
2019-04-11T12:14:57.714Z,38.02
2019-04-11T12:15:57.704Z,39.20
2019-04-11T12:17:01.913Z,39.59
2019-04-11T12:17:59.622Z,38.98
2019-04-11T12:18:58.374Z,39.26
2019-04-11T12:20:05.384Z,37.95
2019-04-11T12:20:59.270Z,37.04
2019-04-11T12:21:57.863Z,38.95
2019-04-11T12:22:57.674Z,36.71
2019-04-11T12:24:03.821Z,35.68
2019-04-11T12:24:58.739Z,37.18
2019-04-11T12:25:57.760Z,36.78
2019-04-11T12:26:57.583Z,34.23
2019-04-11T12:27:58.298Z,34.82
2019-04-11T12:28:57.638Z,34.30
2019-04-11T12:29:57.678Z,32.59
2019-04-11T12:31:01.338Z,34.92
2019-04-11T12:31:59.811Z,35.33
2019-04-11T12:32:57.517Z,35.66
2019-04-11T12:33:57.657Z,34.75
2019-04-11T12:34:57.744Z,35.77
2019-04-11T12:35:59.013Z,35.75
2019-04-11T12:36:57.513Z,35.95
2019-04-11T12:37:57.921Z,35.43
2019-04-11T12:38:57.450Z,34.40
2019-04-11T12:39:57.439Z,33.89
2019-04-11T12:40:57.462Z,31.48
2019-04-11T12:41:57.421Z,32.48
2019-04-11T12:42:57.407Z,32.79
2019-04-11T12:43:57.418Z,31.55
2019-04-11T12:44:59.313Z,32.65
2019-04-11T12:45:57.373Z,31.94
2019-04-11T12:46:57.408Z,32.35
2019-04-11T12:47:57.355Z,33.66
2019-04-11T12:48:57.342Z,32.03
2019-04-11T12:49:57.347Z,31.64
2019-04-11T12:50:57.323Z,32.87
2019-04-11T12:51:57.309Z,34.88
2019-04-11T12:52:57.332Z,33.66
2019-04-11T12:53:57.298Z,33.47
2019-04-11T12:54:57.300Z,33.24